Time;durP1;ratioP1;P1;durP2;ratioP2;P2;SDS_P1;SDS_P2;PMS_P1;PMS_P2;Temp;Humidity;BMP_temperature;BMP_pressure;BME280_temperature;BME280_humidity;BME280_pressure;Samples;Min_cycle;Max_cycle;Signal;HPM_P1;HPM_P2
2021/09/03 00:00:45;;;;;;;1.50;1.00;;;15.90;98.20;;;;;;5000116;28;20947;-80
2021/09/03 00:03:12;;;;;;;1.53;1.00;;;15.80;98.20;;;;;;4969686;28;20492;-80
2021/09/03 00:05:40;;;;;;;1.57;1.00;;;15.80;98.20;;;;;;4994663;28;20465;-77
2021/09/03 00:08:07;;;;;;;1.60;1.10;;;15.80;98.20;;;;;;4982282;28;20472;-79
2021/09/03 00:10:34;;;;;;;1.57;1.00;;;15.80;98.20;;;;;;4997129;28;20971;-79
2021/09/03 00:13:01;;;;;;;1.57;1.00;;;15.70;98.20;;;;;;4991426;28;20499;-79
2021/09/03 00:15:28;;;;;;;1.57;1.00;;;15.70;98.20;;;;;;4999756;28;20467;-79
2021/09/03 00:17:55;;;;;;;1.50;1.00;;;15.70;98.20;;;;;;4986232;28;20512;-79
2021/09/03 00:20:22;;;;;;;1.53;0.97;;;15.70;98.20;;;;;;4997147;28;20460;-80
2021/09/03 00:22:50;;;;;;;1.50;1.00;;;15.70;98.20;;;;;;4987575;28;20497;-79
2021/09/03 00:25:17;;;;;;;1.50;1.00;;;15.70;98.20;;;;;;5002157;28;20833;-77
2021/09/03 00:27:44;;;;;;;1.53;1.10;;;15.70;98.20;;;;;;4986632;28;20852;-80
2021/09/03 00:30:13;;;;;;;1.53;1.00;;;15.70;98.20;;;;;;5002821;28;20473;-79
2021/09/03 00:32:41;;;;;;;1.50;1.00;;;15.60;98.20;;;;;;4991281;28;20724;-81
2021/09/03 00:35:09;;;;;;;1.60;1.10;;;15.60;98.20;;;;;;4998573;28;20886;-80
2021/09/03 00:37:37;;;;;;;1.53;1.00;;;15.60;98.20;;;;;;4992304;28;20488;-79
2021/09/03 00:40:06;;;;;;;1.57;1.00;;;15.60;98.20;;;;;;5000594;28;20461;-80
2021/09/03 00:42:33;;;;;;;1.53;1.00;;;15.60;98.20;;;;;;4992018;28;20484;-80
2021/09/03 00:45:00;;;;;;;1.57;1.10;;;15.50;98.20;;;;;;4998050;28;20461;-79
2021/09/03 00:47:27;;;;;;;1.50;0.97;;;15.50;98.20;;;;;;4987851;28;20894;-79
2021/09/03 00:49:53;;;;;;;1.50;1.00;;;15.50;98.20;;;;;;4999280;28;20465;-79
2021/09/03 00:52:21;;;;;;;1.53;1.00;;;15.50;98.20;;;;;;4986994;28;20476;-78
2021/09/03 00:54:48;;;;;;;1.60;1.10;;;15.50;98.20;;;;;;4999563;28;20576;-80
2021/09/03 00:57:17;;;;;;;1.60;1.00;;;15.50;98.20;;;;;;4992314;28;20496;-79
2021/09/03 00:59:43;;;;;;;1.60;1.00;;;15.40;98.20;;;;;;4997096;28;20839;-76
2021/09/03 01:02:10;;;;;;;1.53;1.00;;;15.40;98.20;;;;;;4984463;28;20869;-79
2021/09/03 01:04:37;;;;;;;1.57;1.10;;;15.40;98.20;;;;;;4983914;28;21008;-78
2021/09/03 01:07:04;;;;;;;1.57;1.00;;;15.40;98.20;;;;;;4983318;28;21035;-79
2021/09/03 01:09:31;;;;;;;1.57;1.00;;;15.40;98.20;;;;;;4994544;28;20836;-78
2021/09/03 01:11:57;;;;;;;1.53;1.00;;;15.30;98.20;;;;;;4990196;28;20492;-77
2021/09/03 01:14:25;;;;;;;1.53;1.00;;;15.30;98.20;;;;;;4999936;28;20483;-79
2021/09/03 01:16:53;;;;;;;1.60;1.10;;;15.30;98.20;;;;;;4993773;28;20485;-78
2021/09/03 01:19:20;;;;;;;1.60;1.10;;;15.30;98.20;;;;;;4994221;28;20449;-79
2021/09/03 01:21:49;;;;;;;1.60;1.10;;;15.20;98.20;;;;;;4998983;28;20488;-79
2021/09/03 01:24:16;;;;;;;1.53;1.00;;;15.20;98.20;;;;;;4993667;28;20863;-78
2021/09/03 01:26:43;;;;;;;1.53;1.00;;;15.20;98.20;;;;;;4991371;28;20877;-79
2021/09/03 01:29:10;;;;;;;1.57;1.00;;;15.20;98.20;;;;;;4995418;28;20462;-79
2021/09/03 01:31:37;;;;;;;1.53;1.00;;;15.20;98.20;;;;;;4997811;28;20492;-79
2021/09/03 01:34:03;;;;;;;1.53;1.00;;;15.10;98.20;;;;;;4993820;28;21062;-79
2021/09/03 01:36:31;;;;;;;1.50;1.00;;;15.10;98.20;;;;;;4982439;28;20481;-79
2021/09/03 01:39:00;;;;;;;1.50;1.00;;;15.10;98.20;;;;;;4997983;28;20840;-79
2021/09/03 01:41:27;;;;;;;1.53;1.00;;;15.10;98.20;;;;;;4986895;28;21129;-79
2021/09/03 01:43:54;;;;;;;1.57;1.00;;;15.00;98.20;;;;;;4995210;28;20483;-79
2021/09/03 01:46:21;;;;;;;1.53;1.03;;;15.00;98.20;;;;;;4986199;28;20983;-79
2021/09/03 01:48:48;;;;;;;1.50;1.00;;;15.00;98.20;;;;;;4995389;28;20492;-79
2021/09/03 01:51:15;;;;;;;1.57;1.00;;;15.00;98.20;;;;;;4989668;28;20503;-79
2021/09/03 01:53:42;;;;;;;1.57;1.10;;;15.00;98.20;;;;;;5000669;28;20488;-79
2021/09/03 01:56:10;;;;;;;1.57;1.10;;;14.90;98.20;;;;;;4987393;28;20485;-78
2021/09/03 01:58:37;;;;;;;1.53;1.00;;;14.90;98.20;;;;;;5005132;28;20479;-79
2021/09/03 02:01:29;;;;;;;1.50;0.97;;;14.90;98.20;;;;;;4997296;28;20460;-79
2021/09/03 02:03:56;;;;;;;1.50;1.00;;;14.80;98.20;;;;;;4998940;28;20485;-78
2021/09/03 02:06:22;;;;;;;1.60;1.10;;;14.80;98.20;;;;;;4991749;28;20489;-79
2021/09/03 02:08:49;;;;;;;1.53;1.00;;;14.80;98.20;;;;;;5001349;28;20457;-80
2021/09/03 02:11:17;;;;;;;1.57;1.00;;;14.80;98.20;;;;;;4988096;28;20484;-79
2021/09/03 02:13:44;;;;;;;1.53;1.00;;;14.80;98.20;;;;;;4997749;28;20487;-80
2021/09/03 02:16:11;;;;;;;1.53;1.00;;;14.70;98.20;;;;;;4996473;28;20496;-81
2021/09/03 02:18:37;;;;;;;1.50;1.00;;;14.70;98.20;;;;;;5001708;28;20481;-79
2021/09/03 02:21:04;;;;;;;1.57;1.00;;;14.70;98.20;;;;;;4988593;28;20465;-79
2021/09/03 02:23:32;;;;;;;1.50;0.90;;;14.60;98.20;;;;;;4991458;28;20484;-78
2021/09/03 02:25:59;;;;;;;1.53;1.10;;;14.60;98.20;;;;;;4988874;28;20987;-78
2021/09/03 02:28:28;;;;;;;1.57;1.10;;;14.60;98.20;;;;;;4999825;28;20523;-78
2021/09/03 02:30:55;;;;;;;1.50;1.03;;;14.60;98.20;;;;;;4990851;28;20910;-77
2021/09/03 02:33:23;;;;;;;1.53;1.10;;;14.60;98.20;;;;;;5004058;28;20489;-77
2021/09/03 02:35:50;;;;;;;1.60;1.10;;;14.60;98.20;;;;;;4986747;28;20469;-77
2021/09/03 02:38:18;;;;;;;1.50;1.00;;;14.50;98.20;;;;;;5000236;28;20520;-79
2021/09/03 02:40:45;;;;;;;1.57;1.00;;;14.50;98.20;;;;;;4998333;28;20457;-77
2021/09/03 02:43:13;;;;;;;1.50;1.00;;;14.50;98.20;;;;;;4973684;28;20481;-78
2021/09/03 02:45:42;;;;;;;1.53;1.10;;;14.50;98.20;;;;;;4997740;28;20488;-79
2021/09/03 02:48:09;;;;;;;1.53;1.00;;;14.50;98.20;;;;;;4985799;28;20547;-77
2021/09/03 02:50:37;;;;;;;1.53;1.00;;;14.50;98.20;;;;;;4998782;28;20453;-78
2021/09/03 02:53:04;;;;;;;1.50;1.10;;;14.50;98.20;;;;;;4986334;28;20511;-77
2021/09/03 02:55:31;;;;;;;1.53;1.00;;;14.50;98.20;;;;;;4999134;28;20492;-79
2021/09/03 02:57:58;;;;;;;1.57;1.00;;;14.40;98.20;;;;;;4994505;28;20473;-78
2021/09/03 03:00:27;;;;;;;1.53;1.00;;;14.40;98.20;;;;;;4998874;28;20457;-79
2021/09/03 03:02:57;;;;;;;1.50;1.00;;;14.40;98.20;;;;;;4985784;28;20559;-77
2021/09/03 03:05:25;;;;;;;1.50;1.10;;;14.40;98.20;;;;;;4991412;28;20492;-78
2021/09/03 03:07:53;;;;;;;1.50;1.00;;;14.40;98.20;;;;;;4986333;28;20484;-79
2021/09/03 03:10:20;;;;;;;1.53;1.00;;;14.40;98.20;;;;;;5002552;28;20465;-78
2021/09/03 03:12:52;;;;;;;1.50;1.00;;;14.30;98.20;;;;;;4994690;28;20489;-78
2021/09/03 03:15:20;;;;;;;1.57;1.10;;;14.30;98.20;;;;;;4996797;28;20492;-79
2021/09/03 03:17:47;;;;;;;1.60;1.10;;;14.30;98.20;;;;;;5000624;28;20484;-78
2021/09/03 03:20:17;;;;;;;1.50;1.00;;;14.30;98.20;;;;;;4998182;28;20477;-78
2021/09/03 03:22:45;;;;;;;1.60;1.10;;;14.30;98.20;;;;;;4982960;28;20484;-79
2021/09/03 03:25:13;;;;;;;1.53;1.00;;;14.20;98.20;;;;;;5001726;28;20539;-78
2021/09/03 03:27:40;;;;;;;1.50;1.07;;;14.20;98.20;;;;;;4986747;28;20492;-77
2021/09/03 03:30:09;;;;;;;1.57;1.10;;;14.20;98.20;;;;;;4999508;28;20472;-79
2021/09/03 03:32:36;;;;;;;1.53;1.10;;;14.20;98.20;;;;;;4990399;28;20647;-78
2021/09/03 03:35:04;;;;;;;1.50;1.00;;;14.20;98.20;;;;;;5000475;28;20957;-78
2021/09/03 03:37:33;;;;;;;1.53;1.03;;;14.20;98.20;;;;;;4993817;28;20521;-78
2021/09/03 03:40:00;;;;;;;1.50;1.00;;;14.20;98.20;;;;;;5002605;28;21018;-79
2021/09/03 03:42:28;;;;;;;1.60;1.07;;;14.10;98.20;;;;;;4998380;28;20604;-78
2021/09/03 03:44:55;;;;;;;1.57;1.03;;;14.10;98.20;;;;;;4999368;28;20460;-78
2021/09/03 03:47:23;;;;;;;1.57;1.10;;;14.10;98.20;;;;;;5006287;28;20476;-78
2021/09/03 03:49:50;;;;;;;1.50;1.00;;;14.10;98.20;;;;;;5008336;28;20826;-78
2021/09/03 03:52:20;;;;;;;1.50;1.00;;;14.10;98.20;;;;;;4991691;28;20488;-78
2021/09/03 03:54:49;;;;;;;1.60;1.10;;;14.10;98.20;;;;;;5006728;28;20470;-78
2021/09/03 03:57:16;;;;;;;1.50;1.00;;;14.00;98.20;;;;;;4982837;28;20477;-78
2021/09/03 03:59:43;;;;;;;1.53;1.00;;;14.00;98.20;;;;;;5001978;28;21015;-78
2021/09/03 04:02:11;;;;;;;1.53;1.00;;;14.00;98.20;;;;;;4990995;28;20484;-77
2021/09/03 04:04:39;;;;;;;1.60;1.10;;;14.00;98.20;;;;;;4995655;28;20492;-78
2021/09/03 04:07:06;;;;;;;1.57;1.00;;;13.90;98.20;;;;;;4989429;28;20485;-78
2021/09/03 04:09:34;;;;;;;1.60;1.10;;;13.90;98.20;;;;;;5000910;28;20465;-78
2021/09/03 04:12:02;;;;;;;1.60;1.20;;;13.90;98.20;;;;;;4991441;28;20559;-78
2021/09/03 04:14:30;;;;;;;1.53;1.03;;;13.90;98.20;;;;;;4987875;28;20914;-78
2021/09/03 04:16:57;;;;;;;1.53;1.00;;;13.90;98.20;;;;;;4984593;28;20520;-78
2021/09/03 04:19:24;;;;;;;1.60;1.20;;;13.90;98.20;;;;;;5003851;28;20568;-78
2021/09/03 04:21:52;;;;;;;1.50;1.10;;;13.80;98.20;;;;;;4999607;28;20531;-78
2021/09/03 04:24:19;;;;;;;1.53;1.10;;;13.80;98.20;;;;;;5009933;28;20480;-78
2021/09/03 04:26:47;;;;;;;1.53;1.10;;;13.80;98.20;;;;;;4990821;28;20614;-78
2021/09/03 04:29:16;;;;;;;1.50;1.10;;;13.80;98.20;;;;;;4999859;28;20469;-78
2021/09/03 04:31:43;;;;;;;1.50;1.10;;;13.80;98.20;;;;;;4992060;28;20516;-78
2021/09/03 04:34:10;;;;;;;1.57;1.07;;;13.80;98.20;;;;;;5000959;28;20501;-78
2021/09/03 04:36:38;;;;;;;1.53;1.10;;;13.80;98.20;;;;;;4991812;28;20540;-78
2021/09/03 04:39:05;;;;;;;1.57;1.10;;;13.80;98.20;;;;;;5001289;28;21194;-77
2021/09/03 04:41:32;;;;;;;1.50;1.00;;;13.80;98.20;;;;;;4994265;28;20871;-79
2021/09/03 04:43:59;;;;;;;1.60;1.10;;;13.70;98.20;;;;;;4992556;28;20487;-81
2021/09/03 04:46:27;;;;;;;1.60;1.20;;;13.70;98.20;;;;;;4999893;22;20484;-81
2021/09/03 04:48:54;;;;;;;1.57;1.10;;;13.70;98.20;;;;;;5001932;28;20941;-82
2021/09/03 04:51:21;;;;;;;1.53;1.00;;;13.70;98.20;;;;;;4990001;28;20487;-82
2021/09/03 04:53:47;;;;;;;1.50;1.10;;;13.70;98.20;;;;;;4992515;28;20472;-82
2021/09/03 04:56:14;;;;;;;1.60;1.03;;;13.70;98.20;;;;;;4977106;28;20535;-81
2021/09/03 04:58:43;;;;;;;1.60;1.10;;;13.60;98.20;;;;;;4993913;28;20874;-81
2021/09/03 05:01:09;;;;;;;1.70;1.33;;;13.60;98.20;;;;;;4988357;28;20480;-83
2021/09/03 05:03:38;;;;;;;1.60;1.17;;;13.60;98.20;;;;;;5000402;28;20461;-80
2021/09/03 05:06:04;;;;;;;1.57;1.00;;;13.60;98.20;;;;;;4986173;28;20496;-81
2021/09/03 05:08:31;;;;;;;1.53;1.00;;;13.60;98.20;;;;;;4983455;28;20445;-82
2021/09/03 05:10:58;;;;;;;1.57;1.10;;;13.70;98.20;;;;;;4990602;28;20465;-81
2021/09/03 05:13:24;;;;;;;1.53;1.03;;;13.60;98.20;;;;;;5001013;28;20464;-81
2021/09/03 05:15:52;;;;;;;1.60;1.10;;;13.70;98.20;;;;;;4989634;28;20815;-78
2021/09/03 05:18:19;;;;;;;1.50;1.10;;;13.70;98.20;;;;;;4993923;28;20496;-79
2021/09/03 05:20:47;;;;;;;1.57;1.00;;;13.70;98.20;;;;;;4997279;28;20469;-77
2021/09/03 05:23:14;;;;;;;1.53;1.00;;;13.70;98.20;;;;;;4991842;28;20504;-82
2021/09/03 05:25:41;;;;;;;1.50;1.10;;;13.70;98.20;;;;;;4991247;28;20861;-81
2021/09/03 05:28:08;;;;;;;1.50;1.00;;;13.70;98.20;;;;;;4988681;28;20491;-80
2021/09/03 05:30:35;;;;;;;1.60;1.10;;;13.70;98.20;;;;;;4999838;28;20469;-81
2021/09/03 05:33:02;;;;;;;1.57;1.10;;;13.70;98.20;;;;;;4996345;28;20493;-81
2021/09/03 05:35:29;;;;;;;1.53;1.03;;;13.80;98.20;;;;;;5000568;28;20495;-81
2021/09/03 05:37:57;;;;;;;1.57;1.10;;;13.80;98.20;;;;;;4988968;28;20477;-81
2021/09/03 05:40:24;;;;;;;1.57;1.10;;;13.80;98.20;;;;;;5000911;28;20928;-81
2021/09/03 05:42:51;;;;;;;1.60;1.07;;;13.90;98.20;;;;;;4989871;28;20488;-81
2021/09/03 05:45:18;;;;;;;1.53;1.00;;;13.90;98.20;;;;;;5000334;28;20493;-80
2021/09/03 05:47:45;;;;;;;1.57;1.00;;;14.00;98.20;;;;;;4988079;28;20493;-79
2021/09/03 05:50:14;;;;;;;1.50;1.00;;;14.10;98.20;;;;;;4999040;28;20461;-79
2021/09/03 05:52:41;;;;;;;1.50;1.10;;;14.20;98.20;;;;;;4987256;28;20493;-79
2021/09/03 05:55:14;;;;;;;1.53;1.00;;;14.30;98.20;;;;;;4998001;28;20493;-80
2021/09/03 05:57:41;;;;;;;1.53;1.10;;;14.40;98.20;;;;;;4990741;28;20797;-79
2021/09/03 06:00:09;;;;;;;1.60;1.00;;;14.60;98.20;;;;;;4997377;28;20469;-82
2021/09/03 06:02:35;;;;;;;1.50;1.00;;;14.80;98.20;;;;;;4991340;28;20507;-80
2021/09/03 06:05:04;;;;;;;1.60;1.00;;;15.00;98.20;;;;;;5004150;28;20553;-81
2021/09/03 06:07:31;;;;;;;1.57;1.10;;;15.10;98.20;;;;;;4996151;28;20480;-80
2021/09/03 06:09:58;;;;;;;1.57;1.00;;;15.30;98.20;;;;;;4997743;28;20476;-81
2021/09/03 06:12:26;;;;;;;1.53;1.00;;;15.50;98.20;;;;;;4981870;28;20481;-80
2021/09/03 06:14:53;;;;;;;1.60;1.07;;;15.60;98.20;;;;;;4999757;28;20484;-81
2021/09/03 06:17:20;;;;;;;1.60;1.00;;;15.80;98.20;;;;;;4989139;28;20503;-80
2021/09/03 06:19:46;;;;;;;1.60;1.00;;;15.90;98.20;;;;;;4999650;28;20901;-81
2021/09/03 06:22:13;;;;;;;1.60;1.10;;;16.10;98.20;;;;;;4986794;28;20505;-79
2021/09/03 06:24:40;;;;;;;1.57;1.00;;;16.20;98.20;;;;;;4997379;28;20460;-81
2021/09/03 06:27:08;;;;;;;1.53;1.00;;;16.40;98.20;;;;;;4980003;28;20491;-80
2021/09/03 06:29:38;;;;;;;1.60;1.10;;;16.60;98.20;;;;;;4998435;28;20674;-81
2021/09/03 06:32:06;;;;;;;1.53;1.00;;;16.80;98.20;;;;;;4987644;28;20489;-81
2021/09/03 06:34:33;;;;;;;1.60;1.10;;;16.90;98.20;;;;;;4997531;28;20465;-81
2021/09/03 06:37:00;;;;;;;1.57;1.00;;;17.10;98.20;;;;;;4977649;28;20486;-81
2021/09/03 06:39:26;;;;;;;1.60;1.00;;;17.30;98.20;;;;;;4995967;28;20478;-81
2021/09/03 06:41:53;;;;;;;1.57;1.00;;;17.40;98.20;;;;;;4986751;28;20485;-82
2021/09/03 06:44:20;;;;;;;1.57;0.90;;;17.60;98.20;;;;;;4995963;28;20467;-81
2021/09/03 06:46:48;;;;;;;1.60;0.90;;;17.80;98.20;;;;;;4981915;28;20496;-81
2021/09/03 06:49:15;;;;;;;1.60;1.00;;;17.90;98.20;;;;;;4991613;28;20491;-81
2021/09/03 06:51:42;;;;;;;1.60;1.00;;;18.10;98.20;;;;;;4983260;28;20684;-81
2021/09/03 06:54:08;;;;;;;1.60;1.00;;;18.30;98.20;;;;;;4992557;28;20472;-80
2021/09/03 06:56:35;;;;;;;1.57;1.00;;;18.40;98.20;;;;;;4984666;28;20496;-80
2021/09/03 06:59:02;;;;;;;1.53;0.90;;;18.50;98.20;;;;;;4992209;28;20587;-82
2021/09/03 07:01:29;;;;;;;1.60;1.00;;;18.60;98.20;;;;;;4982633;28;20484;-81
2021/09/03 07:03:58;;;;;;;1.57;0.90;;;18.60;98.20;;;;;;4990137;28;20458;-81
2021/09/03 07:06:24;;;;;;;1.50;0.90;;;18.70;98.20;;;;;;4983086;28;20481;-83
2021/09/03 07:08:51;;;;;;;1.53;1.00;;;18.90;98.20;;;;;;4989526;28;20453;-80
2021/09/03 07:11:18;;;;;;;1.60;1.00;;;19.10;98.20;;;;;;4981519;28;20520;-80
2021/09/03 07:13:45;;;;;;;1.57;1.00;;;19.20;98.20;;;;;;4990955;28;21030;-79
2021/09/03 07:16:12;;;;;;;1.53;0.90;;;19.40;98.20;;;;;;4979623;28;20775;-80
2021/09/03 07:18:39;;;;;;;1.60;1.10;;;19.50;98.20;;;;;;4989217;28;20511;-79
2021/09/03 07:21:07;;;;;;;1.60;1.00;;;19.70;98.20;;;;;;4982520;28;20467;-79
2021/09/03 07:23:34;;;;;;;1.57;0.90;;;19.80;98.20;;;;;;4989608;28;20578;-80
2021/09/03 07:26:01;;;;;;;1.57;0.93;;;20.00;98.20;;;;;;4981960;28;20484;-80
2021/09/03 07:28:28;;;;;;;1.60;1.00;;;20.10;98.20;;;;;;4985370;28;20458;-81
2021/09/03 07:30:56;;;;;;;1.53;0.90;;;20.20;98.20;;;;;;4978358;28;20532;-79
2021/09/03 07:33:22;;;;;;;1.53;0.90;;;20.30;98.20;;;;;;4979831;28;20465;-80
2021/09/03 07:35:49;;;;;;;1.53;0.90;;;20.40;98.20;;;;;;4981002;28;20561;-80
2021/09/03 07:38:17;;;;;;;1.60;1.00;;;20.50;98.20;;;;;;4976790;28;20476;-81
2021/09/03 07:40:44;;;;;;;1.53;0.90;;;20.70;98.20;;;;;;4990504;28;20468;-80
2021/09/03 07:43:13;;;;;;;1.50;0.90;;;20.80;98.20;;;;;;4979658;28;21122;-80
2021/09/03 07:45:40;;;;;;;1.57;1.00;;;20.90;97.30;;;;;;4975750;28;20488;-79
2021/09/03 07:48:07;;;;;;;1.57;0.90;;;21.10;96.60;;;;;;4978559;28;20500;-81
2021/09/03 07:50:35;;;;;;;1.57;0.90;;;21.20;96.90;;;;;;4991467;28;20488;-81
2021/09/03 07:53:02;;;;;;;1.77;1.43;;;21.30;95.90;;;;;;4979673;28;20488;-81
2021/09/03 07:55:31;;;;;;;1.60;1.10;;;21.50;95.80;;;;;;4989412;28;20485;-81
2021/09/03 07:57:58;;;;;;;1.50;0.90;;;21.50;97.80;;;;;;4982287;28;20730;-80
2021/09/03 08:00:25;;;;;;;1.50;0.90;;;21.60;95.40;;;;;;4988407;28;20527;-80
2021/09/03 08:02:53;;;;;;;1.57;0.90;;;21.70;97.10;;;;;;4979508;28;20496;-80
2021/09/03 08:05:20;;;;;;;1.53;0.90;;;21.80;94.70;;;;;;4991910;28;20485;-80
2021/09/03 08:07:46;;;;;;;1.50;0.90;;;21.90;96.00;;;;;;4981540;28;20855;-78
2021/09/03 08:10:15;;;;;;;1.53;0.90;;;22.00;95.20;;;;;;4993488;28;20460;-80
2021/09/03 08:12:43;;;;;;;1.60;1.00;;;22.10;93.40;;;;;;4981670;28;20669;-80
2021/09/03 08:15:11;;;;;;;1.57;0.90;;;22.10;93.30;;;;;;4990842;28;20491;-80
2021/09/03 08:17:38;;;;;;;1.53;0.90;;;22.20;93.00;;;;;;4983638;28;20492;-80
2021/09/03 08:20:07;;;;;;;1.60;1.00;;;22.30;93.20;;;;;;4995770;28;21022;-80
2021/09/03 08:22:34;;;;;;;1.50;0.90;;;22.40;92.80;;;;;;4983524;28;20590;-80
2021/09/03 08:25:01;;;;;;;1.53;0.90;;;22.60;92.30;;;;;;4995923;28;20481;-80
2021/09/03 08:27:28;;;;;;;1.57;0.90;;;22.70;91.70;;;;;;4979486;28;20531;-79
2021/09/03 08:29:57;;;;;;;1.57;0.90;;;22.90;91.50;;;;;;4973944;28;20475;-80
2021/09/03 08:32:23;;;;;;;1.53;0.90;;;23.00;92.40;;;;;;4983226;28;20485;-79
2021/09/03 08:34:51;;;;;;;1.57;0.90;;;23.00;92.80;;;;;;4994500;28;20481;-79
2021/09/03 08:37:18;;;;;;;1.50;0.90;;;23.10;91.80;;;;;;4974028;28;20543;-80
2021/09/03 08:39:44;;;;;;;1.50;0.90;;;23.20;90.80;;;;;;4988953;28;20491;-80
2021/09/03 08:42:11;;;;;;;1.57;0.97;;;23.20;90.30;;;;;;4974141;28;20491;-79
2021/09/03 08:44:38;;;;;;;1.53;0.90;;;23.30;89.90;;;;;;4993179;28;20471;-80
2021/09/03 08:47:09;;;;;;;1.50;0.90;;;23.40;90.10;;;;;;4973435;28;20501;-79
2021/09/03 08:49:37;;;;;;;1.50;0.90;;;23.50;89.70;;;;;;4991949;28;20457;-79
2021/09/03 08:52:04;;;;;;;1.60;0.90;;;23.60;91.00;;;;;;4983577;28;20952;-80
2021/09/03 08:54:31;;;;;;;1.53;0.90;;;23.70;89.90;;;;;;4994593;28;20471;-79
2021/09/03 08:56:58;;;;;;;1.53;0.80;;;23.70;89.60;;;;;;4980209;28;20564;-80
2021/09/03 08:59:25;;;;;;;1.50;0.90;;;23.70;89.30;;;;;;4985083;28;20489;-79
2021/09/03 09:02:11;;;;;;;1.60;1.30;;;23.70;89.90;;;;;;4982317;28;20478;-78
2021/09/03 09:04:40;;;;;;;1.50;0.90;;;23.90;89.50;;;;;;4990585;28;20468;-79
2021/09/03 09:07:07;;;;;;;1.50;0.90;;;23.90;88.20;;;;;;4975165;28;20926;-80
2021/09/03 09:09:36;;;;;;;1.50;0.90;;;24.00;88.80;;;;;;4990590;28;20461;-77
2021/09/03 09:12:05;;;;;;;1.50;0.87;;;24.00;89.40;;;;;;4979859;28;20629;-78
2021/09/03 09:15:05;;;;;;;1.57;0.80;;;24.10;88.20;;;;;;4987020;28;21118;-79
2021/09/03 09:17:35;;;;;;;1.60;1.10;;;24.20;88.40;;;;;;4979428;28;20485;-79
2021/09/03 09:20:04;;;;;;;1.53;0.90;;;24.40;88.70;;;;;;4997934;28;21084;-79
2021/09/03 09:22:51;;;;;;;1.53;0.80;;;24.60;87.40;;;;;;4987213;28;20559;-80
2021/09/03 09:25:20;;;;;;;1.57;0.90;;;24.80;87.40;;;;;;4987337;28;20492;-80
2021/09/03 09:27:48;;;;;;;1.53;0.90;;;24.90;88.50;;;;;;4989694;28;20512;-79
2021/09/03 09:30:20;;;;;;;1.53;0.90;;;25.00;86.90;;;;;;4994036;28;20465;-80
2021/09/03 09:33:13;;;;;;;1.50;0.90;;;25.10;86.00;;;;;;4985119;28;20480;-79
2021/09/03 09:35:48;;;;;;;1.53;0.90;;;25.20;85.80;;;;;;4992018;28;20481;-79
2021/09/03 09:38:16;;;;;;;1.57;0.90;;;25.30;84.80;;;;;;4961524;28;20477;-80
2021/09/03 09:40:45;;;;;;;1.50;0.90;;;25.40;86.40;;;;;;4965215;28;20502;-78
2021/09/03 09:43:31;;;;;;;1.50;0.90;;;25.40;85.60;;;;;;4966557;28;20983;-79
2021/09/03 09:46:19;;;;;;;1.50;0.90;;;25.50;83.70;;;;;;4968252;28;20484;-78
2021/09/03 09:49:13;;;;;;;1.70;1.37;;;25.60;83.40;;;;;;4988941;28;20467;-79
2021/09/03 09:51:45;;;;;;;1.50;0.90;;;25.60;83.50;;;;;;4969914;28;20480;-79
2021/09/03 09:54:17;;;;;;;1.50;0.90;;;25.60;84.60;;;;;;4989867;28;20636;-79
2021/09/03 09:56:46;;;;;;;1.50;0.90;;;25.60;83.40;;;;;;4985036;28;20499;-78
2021/09/03 09:59:14;;;;;;;1.50;0.90;;;25.60;84.10;;;;;;4995721;28;20469;-79
2021/09/03 10:01:44;;;;;;;1.53;0.83;;;25.70;84.30;;;;;;4965530;28;20883;-78
2021/09/03 10:04:13;;;;;;;1.50;0.80;;;25.80;83.30;;;;;;4992940;28;20461;-78
2021/09/03 10:06:42;;;;;;;1.90;1.53;;;25.90;83.00;;;;;;4979274;28;20515;-79
2021/09/03 10:09:11;;;;;;;1.50;0.80;;;25.90;83.60;;;;;;4989813;28;20460;-78
2021/09/03 10:11:39;;;;;;;1.50;0.80;;;25.90;83.30;;;;;;4977949;28;20488;-79
2021/09/03 10:14:08;;;;;;;1.50;0.80;;;26.00;83.30;;;;;;4990540;28;20465;-79
2021/09/03 10:16:35;;;;;;;1.50;0.90;;;26.10;82.20;;;;;;4980810;28;21037;-78
2021/09/03 10:19:05;;;;;;;1.53;0.90;;;26.20;81.30;;;;;;4992522;28;20469;-78
2021/09/03 10:21:36;;;;;;;1.50;0.90;;;26.20;82.10;;;;;;4986424;28;20544;-79
2021/09/03 10:24:15;;;;;;;1.53;0.80;;;26.30;80.90;;;;;;4999636;28;20449;-79
2021/09/03 10:26:44;;;;;;;1.50;0.90;;;26.30;80.90;;;;;;4982728;28;20496;-79
2021/09/03 10:29:25;;;;;;;1.50;0.90;;;26.30;81.10;;;;;;4980463;28;20822;-82
2021/09/03 10:32:17;;;;;;;1.50;0.80;;;26.40;81.30;;;;;;4972593;28;21006;-82
2021/09/03 10:34:58;;;;;;;1.50;0.90;;;26.40;81.10;;;;;;4987273;28;20460;-82
2021/09/03 10:40:40;;;;;;;1.50;0.90;;;26.60;79.90;;;;;;4980084;28;20483;-81
2021/09/03 10:43:07;;;;;;;1.50;0.80;;;26.60;80.10;;;;;;4977776;28;20480;-79
2021/09/03 10:45:40;;;;;;;1.50;0.80;;;26.70;79.80;;;;;;4988282;28;20618;-82
2021/09/03 10:48:10;;;;;;;1.50;0.80;;;26.70;79.80;;;;;;4983761;28;20583;-81
2021/09/03 10:50:42;;;;;;;1.60;1.00;;;26.80;78.80;;;;;;4999080;28;20461;-83
2021/09/03 10:53:23;;;;;;;1.50;0.80;;;26.80;78.30;;;;;;4977412;28;20910;-81
2021/09/03 10:56:09;;;;;;;1.50;0.90;;;26.90;80.00;;;;;;4976670;28;20476;-82
2021/09/03 10:58:42;;;;;;;1.50;0.90;;;27.00;79.70;;;;;;4982435;28;20472;-82
2021/09/03 11:01:39;;;;;;;1.50;0.90;;;27.10;77.80;;;;;;4983339;28;20487;-81
2021/09/03 11:04:11;;;;;;;1.50;0.80;;;27.20;77.40;;;;;;4938482;28;20469;-80
2021/09/03 11:06:39;;;;;;;1.50;0.80;;;27.30;78.50;;;;;;4978519;28;20486;-81
2021/09/03 11:09:21;;;;;;;1.50;0.80;;;27.30;77.80;;;;;;4982850;28;20535;-81
2021/09/03 11:11:49;;;;;;;1.50;0.80;;;27.50;77.90;;;;;;4968672;28;20491;-79
2021/09/03 11:14:18;;;;;;;1.50;0.80;;;27.60;76.40;;;;;;4985009;28;20467;-80
2021/09/03 11:16:47;;;;;;;1.50;0.80;;;27.60;77.20;;;;;;4968653;28;20527;-79
2021/09/03 11:19:17;;;;;;;1.50;0.90;;;27.60;75.50;;;;;;4984563;28;20998;-80
2021/09/03 11:21:55;;;;;;;1.50;0.90;;;27.70;76.80;;;;;;4970788;28;20492;-80
2021/09/03 11:24:26;;;;;;;1.50;0.90;;;27.70;76.30;;;;;;4977128;28;20564;-80
2021/09/03 11:26:55;;;;;;;1.50;0.90;;;27.80;76.20;;;;;;4975091;28;21006;-79
2021/09/03 11:29:26;;;;;;;1.50;0.80;;;28.00;75.10;;;;;;4982672;28;20496;-81
2021/09/03 11:31:57;;;;;;;1.50;0.80;;;27.90;72.80;;;;;;4973155;28;20508;-81
2021/09/03 11:34:53;;;;;;;1.50;0.80;;;27.90;74.00;;;;;;4977002;28;20463;-81
2021/09/03 11:37:23;;;;;;;1.50;0.80;;;27.90;74.10;;;;;;4972825;28;20554;-82
2021/09/03 11:39:52;;;;;;;1.50;0.90;;;27.90;74.50;;;;;;4984966;28;20488;-81
2021/09/03 11:42:21;;;;;;;1.50;0.90;;;27.70;73.10;;;;;;4973455;28;20950;-81
2021/09/03 11:44:52;;;;;;;1.50;0.90;;;27.70;73.00;;;;;;4984249;28;20460;-81
2021/09/03 11:47:27;;;;;;;1.60;1.00;;;27.60;74.40;;;;;;4978717;28;20502;-81
2021/09/03 11:49:55;;;;;;;1.50;0.87;;;27.70;75.10;;;;;;4987452;28;20456;-82
2021/09/03 11:52:30;;;;;;;1.50;0.80;;;27.70;73.10;;;;;;4970498;28;20480;-80
2021/09/03 11:54:59;;;;;;;1.50;0.90;;;27.80;73.90;;;;;;4988319;28;20479;-79
2021/09/03 11:57:26;;;;;;;1.50;0.80;;;27.90;73.40;;;;;;4972391;28;20486;-82
2021/09/03 11:59:59;;;;;;;1.50;0.80;;;27.90;70.10;;;;;;4986061;28;20484;-82
2021/09/03 12:02:27;;;;;;;1.50;0.90;;;27.90;72.90;;;;;;4979326;28;20859;-81
2021/09/03 12:04:55;;;;;;;1.50;0.90;;;27.90;71.70;;;;;;4987885;28;20492;-79
2021/09/03 12:07:26;;;;;;;1.50;0.80;;;28.00;71.40;;;;;;4973729;28;21049;-79
2021/09/03 12:09:58;;;;;;;1.50;0.90;;;28.00;72.10;;;;;;4988595;28;21026;-78
2021/09/03 12:12:27;;;;;;;1.50;0.80;;;27.90;70.80;;;;;;4975261;28;20480;-79
2021/09/03 12:14:58;;;;;;;1.50;0.90;;;27.80;72.50;;;;;;4987216;28;20518;-79
2021/09/03 12:17:39;;;;;;;1.50;0.80;;;27.90;72.20;;;;;;4976182;28;20570;-79
2021/09/03 12:20:15;;;;;;;1.70;1.30;;;27.90;71.10;;;;;;4987413;28;20480;-79
2021/09/03 12:22:50;;;;;;;1.47;0.80;;;27.90;71.30;;;;;;4975315;28;20491;-79
2021/09/03 12:25:18;;;;;;;1.60;1.20;;;28.00;71.10;;;;;;4989002;28;20491;-79
2021/09/03 12:28:11;;;;;;;1.50;0.90;;;28.20;70.80;;;;;;4976144;28;20476;-78
2021/09/03 12:30:38;;;;;;;1.50;0.80;;;28.30;70.10;;;;;;4988945;28;21275;-79
2021/09/03 12:33:23;;;;;;;1.50;0.80;;;28.50;70.60;;;;;;4960597;28;20490;-78
2021/09/03 12:35:52;;;;;;;1.50;0.90;;;28.60;69.00;;;;;;4974734;28;21025;-79
2021/09/03 12:38:30;;;;;;;1.50;0.90;;;28.50;68.30;;;;;;4983325;28;20469;-80
2021/09/03 12:41:13;;;;;;;1.50;0.80;;;28.50;69.40;;;;;;4973306;28;20495;-80
2021/09/03 12:43:41;;;;;;;1.50;0.80;;;28.60;68.40;;;;;;5002056;28;20463;-79
2021/09/03 12:46:09;;;;;;;1.50;0.80;;;28.80;68.80;;;;;;4972661;28;20489;-79
2021/09/03 12:48:37;;;;;;;1.50;0.90;;;29.00;71.50;;;;;;4987928;28;20468;-78
2021/09/03 12:51:04;;;;;;;1.47;0.80;;;29.10;67.30;;;;;;4981279;28;20457;-80
2021/09/03 12:53:31;;;;;;;1.50;0.90;;;29.00;68.90;;;;;;5003418;28;21029;-81
2021/09/03 12:56:18;;;;;;;1.50;0.80;;;29.10;67.10;;;;;;4983487;28;20890;-79
2021/09/03 12:58:46;;;;;;;1.47;0.80;;;29.10;67.20;;;;;;5012202;28;20457;-80
2021/09/03 13:01:13;;;;;;;1.50;0.90;;;29.10;68.60;;;;;;4989732;28;20453;-80